createdAt,value
2018-08-11T00:02:29.319Z,82.10
2018-08-11T00:05:06.725Z,83.40
2018-08-11T00:07:43.963Z,82.70
2018-08-11T00:10:20.081Z,82.30
2018-08-11T00:12:56.191Z,82.60
2018-08-11T00:15:33.945Z,83.40
2018-08-11T00:18:10.334Z,82.50
2018-08-11T00:20:47.531Z,82.10
2018-08-11T00:23:24.319Z,82.70
2018-08-11T00:26:00.629Z,82.90
2018-08-11T00:28:38.418Z,81.90
2018-08-11T00:31:15.010Z,80.50
2018-08-11T00:33:51.088Z,81.30
2018-08-11T00:36:28.295Z,79.90
2018-08-11T00:39:09.191Z,79.50
2018-08-11T00:41:45.353Z,79.10
2018-08-11T00:44:21.142Z,79.70
2018-08-11T00:46:58.321Z,79.60
2018-08-11T00:49:35.046Z,79.80
2018-08-11T00:52:11.509Z,79.80
2018-08-11T00:54:47.253Z,80.90
2018-08-11T00:57:24.714Z,83.60
2018-08-11T01:00:01.687Z,84.70
2018-08-11T01:02:40.261Z,84.20
2018-08-11T01:05:18.450Z,82.80
2018-08-11T01:07:55.807Z,83.10
2018-08-11T01:10:33.680Z,83.60
2018-08-11T01:13:10.936Z,83.80
2018-08-11T01:15:47.131Z,84.10
2018-08-11T01:18:24.402Z,84.20
2018-08-11T01:21:01.587Z,84.40
2018-08-11T01:23:37.918Z,84.00
2018-08-11T01:26:14.564Z,84.00
2018-08-11T01:28:51.249Z,84.50
2018-08-11T01:31:28.832Z,84.30
2018-08-11T01:34:04.885Z,84.30
2018-08-11T01:36:40.943Z,84.30
2018-08-11T01:39:17.084Z,84.60
2018-08-11T01:41:53.038Z,84.40
2018-08-11T01:44:29.252Z,85.40
2018-08-11T01:47:06.605Z,86.50
2018-08-11T01:49:44.651Z,87.10
2018-08-11T01:52:22.051Z,87.20
2018-08-11T01:54:58.075Z,87.60
2018-08-11T01:57:35.402Z,88.10
2018-08-11T02:00:14.433Z,88.70
2018-08-11T02:02:51.923Z,89.00
2018-08-11T02:05:28.313Z,89.20
2018-08-11T02:08:06.450Z,89.40
2018-08-11T02:10:43.782Z,89.80
2018-08-11T02:13:20.076Z,90.10
2018-08-11T02:15:57.684Z,90.10
2018-08-11T02:18:34.563Z,90.10
2018-08-11T02:21:10.634Z,89.70
2018-08-11T02:23:48.769Z,89.90
2018-08-11T02:26:26.933Z,90.10
2018-08-11T02:29:04.530Z,90.10
2018-08-11T02:31:40.946Z,90.20
2018-08-11T02:34:17.054Z,90.40
2018-08-11T02:36:54.387Z,90.70
2018-08-11T02:39:30.735Z,90.80
2018-08-11T02:42:07.907Z,90.90
2018-08-11T02:44:45.237Z,91.00
2018-08-11T02:47:21.830Z,91.00
2018-08-11T02:49:58.235Z,90.90
2018-08-11T02:52:34.602Z,90.90
2018-08-11T02:55:10.910Z,91.20
2018-08-11T02:57:47.585Z,91.30
2018-08-11T03:00:24.851Z,91.40
2018-08-11T03:03:01.185Z,90.90
2018-08-11T03:05:39.845Z,91.20
2018-08-11T03:08:17.540Z,91.30
2018-08-11T03:10:54.956Z,91.90
2018-08-11T03:13:31.286Z,92.10
2018-08-11T03:16:08.935Z,91.90
2018-08-11T03:18:46.987Z,91.70
2018-08-11T03:21:23.882Z,91.40
2018-08-11T03:24:00.967Z,90.90
2018-08-11T03:26:38.564Z,90.50
2018-08-11T03:29:15.079Z,90.40
2018-08-11T03:31:51.154Z,90.30
2018-08-11T03:34:29.358Z,90.40
2018-08-11T03:37:05.613Z,90.80
2018-08-11T03:39:41.886Z,91.00
2018-08-11T03:42:20.296Z,91.70
2018-08-11T03:44:56.991Z,91.50
2018-08-11T03:47:33.089Z,91.80
2018-08-11T03:50:09.325Z,92.00
2018-08-11T03:52:45.982Z,92.10
2018-08-11T03:55:23.685Z,92.10
2018-08-11T03:58:00.737Z,92.30
2018-08-11T04:00:37.175Z,91.90
2018-08-11T04:03:14.433Z,91.90
2018-08-11T04:05:50.992Z,92.10
2018-08-11T04:08:26.961Z,92.40
2018-08-11T04:11:03.801Z,92.40
2018-08-11T04:13:41.952Z,92.10
2018-08-11T04:16:18.379Z,91.70
2018-08-11T04:18:54.565Z,91.70
2018-08-11T04:21:32.477Z,91.70
2018-08-11T04:24:10.192Z,92.00
2018-08-11T04:26:47.977Z,91.70
2018-08-11T04:29:24.393Z,91.40
2018-08-11T04:32:01.619Z,91.20
2018-08-11T04:34:39.307Z,91.00
2018-08-11T04:37:15.537Z,90.80
2018-08-11T04:39:53.272Z,90.60
2018-08-11T04:42:29.510Z,90.50
2018-08-11T04:45:08.863Z,90.30
2018-08-11T04:47:44.974Z,90.20
2018-08-11T04:50:21.767Z,90.10
2018-08-11T04:52:59.533Z,89.40
2018-08-11T04:55:36.681Z,89.50
2018-08-11T04:58:14.593Z,89.40
2018-08-11T05:00:52.982Z,87.60
2018-08-11T05:03:31.075Z,87.30
2018-08-11T05:06:08.678Z,86.40
2018-08-11T05:08:45.472Z,86.80
2018-08-11T05:11:22.877Z,87.20
2018-08-11T05:14:01.426Z,87.30
2018-08-11T05:16:37.726Z,87.00
2018-08-11T05:19:13.974Z,86.30
2018-08-11T05:21:51.110Z,86.20
2018-08-11T05:24:28.970Z,85.70
2018-08-11T05:27:06.037Z,84.90
2018-08-11T05:29:42.441Z,84.30
2018-08-11T05:32:21.043Z,84.30
2018-08-11T05:34:57.632Z,83.40
2018-08-11T05:37:34.981Z,82.40
2018-08-11T05:40:13.038Z,81.70
2018-08-11T05:42:51.867Z,81.00
2018-08-11T05:45:29.414Z,79.30
2018-08-11T05:48:07.381Z,80.20
2018-08-11T05:50:45.666Z,80.60
2018-08-11T05:53:24.051Z,81.10
2018-08-11T05:56:00.188Z,80.70
2018-08-11T05:58:38.309Z,80.80
2018-08-11T06:01:15.143Z,80.10
2018-08-11T06:03:52.629Z,79.20
2018-08-11T06:06:29.486Z,80.20
2018-08-11T06:09:08.863Z,81.80
2018-08-11T06:11:46.305Z,81.80
2018-08-11T06:14:23.259Z,81.50
2018-08-11T06:16:59.984Z,80.10
2018-08-11T06:19:37.043Z,79.40
2018-08-11T06:22:14.799Z,79.00
2018-08-11T06:24:52.548Z,78.30
2018-08-11T06:27:31.168Z,78.80
2018-08-11T06:30:09.991Z,82.90
2018-08-11T06:32:46.557Z,78.80
2018-08-11T06:35:23.705Z,76.40
2018-08-11T06:38:01.845Z,76.10
2018-08-11T06:40:38.720Z,76.10
2018-08-11T06:43:16.006Z,75.60
2018-08-11T06:45:54.047Z,76.10
2018-08-11T06:48:31.002Z,77.10
2018-08-11T06:51:10.270Z,77.70
2018-08-11T06:53:48.023Z,78.10
2018-08-11T06:56:25.119Z,78.20
2018-08-11T06:59:04.070Z,77.80
2018-08-11T07:01:41.577Z,76.90
2018-08-11T07:04:18.544Z,75.80
2018-08-11T07:06:56.321Z,73.60
2018-08-11T07:09:34.112Z,72.80
2018-08-11T07:12:12.172Z,73.70
2018-08-11T07:14:49.222Z,72.80
2018-08-11T07:17:27.123Z,71.90
2018-08-11T07:20:04.987Z,72.30
2018-08-11T07:22:42.700Z,71.60
2018-08-11T07:25:19.524Z,70.90
2018-08-11T07:27:56.897Z,69.90
2018-08-11T07:30:35.889Z,69.30
2018-08-11T07:33:13.840Z,68.00
2018-08-11T07:35:50.826Z,66.60
2018-08-11T07:38:27.816Z,65.10
2018-08-11T07:41:06.721Z,63.10
2018-08-11T07:43:45.307Z,61.60
2018-08-11T07:46:23.060Z,60.20
2018-08-11T07:49:01.123Z,59.00
2018-08-11T07:51:38.272Z,61.10
2018-08-11T07:54:16.207Z,55.90
2018-08-11T07:56:51.879Z,53.80
2018-08-11T07:59:29.246Z,54.00
2018-08-11T08:02:07.129Z,53.90
2018-08-11T08:04:45.484Z,53.60
2018-08-11T08:07:23.233Z,54.60
2018-08-11T08:10:01.138Z,52.70
2018-08-11T08:12:38.499Z,53.70
2018-08-11T08:15:16.512Z,52.80
2018-08-11T08:17:54.935Z,52.40
2018-08-11T08:20:32.687Z,49.50
2018-08-11T08:23:09.735Z,44.10
2018-08-11T08:25:46.962Z,40.20
2018-08-11T08:28:24.025Z,36.60
2018-08-11T08:31:01.877Z,37.70
2018-08-11T08:33:38.720Z,37.60
2018-08-11T08:36:15.882Z,38.40
2018-08-11T08:38:54.283Z,38.30
2018-08-11T08:41:31.374Z,37.60
2018-08-11T08:44:10.396Z,36.00
2018-08-11T08:46:47.728Z,36.20
2018-08-11T08:49:25.239Z,38.10
2018-08-11T08:52:03.910Z,35.40
2018-08-11T08:54:41.660Z,37.80
2018-08-11T08:57:19.166Z,40.00
2018-08-11T08:59:57.305Z,42.00
2018-08-11T09:02:35.132Z,43.10
2018-08-11T09:05:12.141Z,43.50
2018-08-11T09:07:50.741Z,43.10
2018-08-11T09:10:27.622Z,41.20
2018-08-11T09:13:04.018Z,40.20
2018-08-11T09:15:43.553Z,40.10
2018-08-11T09:18:20.774Z,40.90
2018-08-11T09:20:58.292Z,40.20
2018-08-11T09:23:36.443Z,37.00
2018-08-11T09:26:14.081Z,36.50
2018-08-11T09:28:51.422Z,38.20
2018-08-11T09:31:29.622Z,39.90
2018-08-11T09:34:07.506Z,41.80
2018-08-11T09:36:44.337Z,43.30
2018-08-11T09:39:21.561Z,43.30
2018-08-11T09:41:57.695Z,41.80
2018-08-11T09:44:35.447Z,41.20
2018-08-11T09:47:15.089Z,40.70
2018-08-11T09:49:52.624Z,40.40
2018-08-11T09:52:29.949Z,39.30
2018-08-11T09:55:07.106Z,35.50
2018-08-11T09:57:44.434Z,32.80
2018-08-11T10:00:27.228Z,30.80
2018-08-11T10:03:04.946Z,30.30
2018-08-11T10:05:42.717Z,30.00
2018-08-11T10:08:20.588Z,29.80
2018-08-11T10:10:58.792Z,28.50
2018-08-11T10:13:36.125Z,28.40
2018-08-11T10:16:13.931Z,28.40
2018-08-11T10:18:52.135Z,28.50
2018-08-11T10:21:28.829Z,27.80
2018-08-11T10:24:06.350Z,26.70
2018-08-11T10:26:43.650Z,25.40
2018-08-11T10:29:21.761Z,25.20
2018-08-11T10:32:00.236Z,26.00
2018-08-11T10:34:36.923Z,25.70
2018-08-11T10:37:14.359Z,25.30
2018-08-11T10:39:51.547Z,25.20
2018-08-11T10:42:28.687Z,26.50
2018-08-11T10:45:06.621Z,29.10
2018-08-11T10:47:45.104Z,30.90
2018-08-11T10:50:23.099Z,32.70
2018-08-11T10:53:00.784Z,34.80
2018-08-11T10:55:39.237Z,35.30
2018-08-11T10:58:15.529Z,35.00
2018-08-11T11:00:52.320Z,35.30
2018-08-11T11:03:28.846Z,35.10
2018-08-11T11:06:07.142Z,34.50
2018-08-11T11:08:45.537Z,35.60
2018-08-11T11:11:24.534Z,35.40
2018-08-11T11:14:01.270Z,35.70
2018-08-11T11:16:38.597Z,34.60
2018-08-11T11:19:16.293Z,34.90
2018-08-11T11:21:54.465Z,33.50
2018-08-11T11:24:33.536Z,33.80
2018-08-11T11:27:11.378Z,31.50
2018-08-11T11:29:48.770Z,31.40
2018-08-11T11:32:27.009Z,30.30
2018-08-11T11:35:04.618Z,31.10
2018-08-11T11:37:44.183Z,32.70
2018-08-11T11:40:21.367Z,34.00
2018-08-11T11:42:59.208Z,35.20
2018-08-11T11:45:36.162Z,35.40
2018-08-11T11:48:14.778Z,36.10
2018-08-11T11:50:51.275Z,36.70
2018-08-11T11:53:27.704Z,37.10
2018-08-11T11:56:06.398Z,38.20
2018-08-11T11:58:43.715Z,38.00
2018-08-11T12:01:22.141Z,39.30
2018-08-11T12:03:59.723Z,36.60
2018-08-11T12:06:37.561Z,32.70
2018-08-11T12:09:15.480Z,30.30
2018-08-11T12:11:53.398Z,29.70
2018-08-11T12:14:30.829Z,30.00
2018-08-11T12:17:07.893Z,30.00
2018-08-11T12:19:44.952Z,29.70
2018-08-11T12:22:22.480Z,27.40
2018-08-11T12:25:00.549Z,26.20
2018-08-11T12:27:37.671Z,26.10
2018-08-11T12:30:15.597Z,25.70
2018-08-11T12:32:53.434Z,25.20
2018-08-11T12:35:31.044Z,25.00
2018-08-11T12:38:09.485Z,24.80
2018-08-11T12:40:46.700Z,25.30
2018-08-11T12:43:24.769Z,24.70
2018-08-11T12:46:02.444Z,24.60
2018-08-11T12:48:38.623Z,24.50
2018-08-11T12:51:16.345Z,24.90
2018-08-11T12:53:53.850Z,27.00
2018-08-11T12:56:30.631Z,28.30
2018-08-11T12:59:09.278Z,27.90
2018-08-11T13:01:47.111Z,26.20
2018-08-11T13:04:25.941Z,25.50
2018-08-11T13:07:03.810Z,25.70
2018-08-11T13:09:42.219Z,25.30
2018-08-11T13:12:19.882Z,24.90
2018-08-11T13:14:56.901Z,24.20
2018-08-11T13:17:35.681Z,25.60
2018-08-11T13:20:14.985Z,26.30
2018-08-11T13:22:53.053Z,27.90
2018-08-11T13:25:31.570Z,28.50
2018-08-11T13:28:10.737Z,29.90
2018-08-11T13:30:47.794Z,30.10
2018-08-11T13:33:25.596Z,30.10
2018-08-11T13:36:02.137Z,30.60
2018-08-11T13:38:38.691Z,31.00
2018-08-11T13:41:16.374Z,31.10
2018-08-11T13:43:54.069Z,31.20
2018-08-11T13:46:30.159Z,30.80
2018-08-11T13:49:09.013Z,29.80
2018-08-11T13:51:45.634Z,28.80
2018-08-11T13:54:22.892Z,28.60
2018-08-11T13:57:01.066Z,30.00
2018-08-11T13:59:37.316Z,29.80
2018-08-11T14:02:14.648Z,28.70
2018-08-11T14:04:52.349Z,28.10
2018-08-11T14:07:29.027Z,29.30
2018-08-11T14:10:09.234Z,30.30
2018-08-11T14:12:49.268Z,31.70
2018-08-11T14:15:26.593Z,31.20
2018-08-11T14:18:04.488Z,30.40
2018-08-11T14:20:41.270Z,30.30
2018-08-11T14:23:19.596Z,29.40
2018-08-11T14:25:58.542Z,29.70
2018-08-11T14:28:35.739Z,31.10
2018-08-11T14:31:12.757Z,30.40
2018-08-11T14:33:49.402Z,30.60
2018-08-11T14:36:26.552Z,32.40
2018-08-11T14:39:05.977Z,31.20
2018-08-11T14:41:43.640Z,31.90
2018-08-11T14:44:20.828Z,32.50
2018-08-11T14:46:57.782Z,33.10
2018-08-11T14:49:35.847Z,32.70
2018-08-11T14:52:14.167Z,31.50
2018-08-11T14:54:51.710Z,31.20
2018-08-11T14:57:31.097Z,30.90
2018-08-11T15:00:12.458Z,31.60
2018-08-11T15:02:50.405Z,32.80
2018-08-11T15:05:27.073Z,32.50
2018-08-11T15:08:03.666Z,31.80
2018-08-11T15:10:41.477Z,33.10
2018-08-11T15:13:18.808Z,34.00
2018-08-11T15:15:56.569Z,33.60
2018-08-11T15:18:33.602Z,32.80
2018-08-11T15:21:11.174Z,32.90
2018-08-11T15:23:48.141Z,33.50
2018-08-11T15:26:25.633Z,32.90
2018-08-11T15:29:04.024Z,33.10
2018-08-11T15:31:41.723Z,33.40
2018-08-11T15:34:18.809Z,33.90
2018-08-11T15:36:56.480Z,33.80
2018-08-11T15:39:34.285Z,32.70
2018-08-11T15:42:11.462Z,32.90
2018-08-11T15:44:47.624Z,32.80
2018-08-11T15:47:25.173Z,32.50
2018-08-11T15:50:03.945Z,32.80
2018-08-11T15:52:42.330Z,32.80
2018-08-11T15:55:18.236Z,32.90
2018-08-11T15:57:56.503Z,33.10
2018-08-11T16:00:34.009Z,33.50
2018-08-11T16:03:11.156Z,34.40
2018-08-11T16:05:48.619Z,33.90
2018-08-11T16:08:26.181Z,33.20
2018-08-11T16:11:02.672Z,33.10
2018-08-11T16:13:40.067Z,33.10
2018-08-11T16:16:15.969Z,33.00
2018-08-11T16:18:54.234Z,33.40
2018-08-11T16:21:31.820Z,33.60
2018-08-11T16:24:08.504Z,33.30
2018-08-11T16:26:55.041Z,33.20
2018-08-11T16:29:31.462Z,32.50
2018-08-11T16:32:09.241Z,32.70
2018-08-11T16:34:47.400Z,33.20
2018-08-11T16:37:25.450Z,32.30
2018-08-11T16:40:02.684Z,31.90
2018-08-11T16:42:40.053Z,31.20
2018-08-11T16:45:17.573Z,31.10
2018-08-11T16:47:54.981Z,31.50
2018-08-11T16:50:32.172Z,31.40
2018-08-11T16:53:08.215Z,31.30
2018-08-11T16:55:44.857Z,31.80
2018-08-11T16:58:22.639Z,32.00
2018-08-11T17:00:59.396Z,31.80
2018-08-11T17:03:35.694Z,32.50
2018-08-11T17:06:13.182Z,31.90
2018-08-11T17:08:51.280Z,31.90
2018-08-11T17:11:27.623Z,31.70
2018-08-11T17:14:06.275Z,32.20
2018-08-11T17:16:43.569Z,31.80
2018-08-11T17:19:20.055Z,32.00
2018-08-11T17:21:57.714Z,32.10
2018-08-11T17:24:34.737Z,31.90
2018-08-11T17:27:13.017Z,31.70
2018-08-11T17:29:50.833Z,32.00
2018-08-11T17:32:29.285Z,32.00
2018-08-11T17:35:05.837Z,32.60
2018-08-11T17:37:42.933Z,32.70
2018-08-11T17:40:18.724Z,33.20
2018-08-11T17:42:56.398Z,33.40
2018-08-11T17:45:33.764Z,32.80
2018-08-11T17:48:11.272Z,33.50
2018-08-11T17:50:49.328Z,33.30
2018-08-11T17:53:26.032Z,33.30
2018-08-11T17:56:02.142Z,33.60
2018-08-11T17:58:40.732Z,33.80
2018-08-11T18:01:18.753Z,34.10
2018-08-11T18:03:55.793Z,34.60
2018-08-11T18:06:33.839Z,34.50
2018-08-11T18:09:12.185Z,34.90
2018-08-11T18:11:48.408Z,35.00
2018-08-11T18:14:26.221Z,35.80
2018-08-11T18:17:03.273Z,35.50
2018-08-11T18:19:41.783Z,35.80
2018-08-11T18:22:18.583Z,36.00
2018-08-11T18:24:55.277Z,36.20
2018-08-11T18:27:34.344Z,36.50
2018-08-11T18:30:11.796Z,37.70
2018-08-11T18:32:49.761Z,37.40
2018-08-11T18:35:27.006Z,37.90
2018-08-11T18:38:03.649Z,37.10
2018-08-11T18:40:41.076Z,39.90
2018-08-11T18:43:19.284Z,41.20
2018-08-11T18:45:57.004Z,39.30
2018-08-11T18:48:34.544Z,39.60
2018-08-11T18:51:11.033Z,39.70
2018-08-11T18:53:48.553Z,38.90
2018-08-11T18:56:25.900Z,39.70
2018-08-11T18:59:02.267Z,40.40
2018-08-11T19:01:40.333Z,39.30
2018-08-11T19:04:15.929Z,38.70
2018-08-11T19:06:53.611Z,40.50
2018-08-11T19:09:31.321Z,39.20
2018-08-11T19:12:09.016Z,41.00
2018-08-11T19:14:45.981Z,39.10
2018-08-11T19:17:22.642Z,40.20
2018-08-11T19:20:00.589Z,40.40
2018-08-11T19:22:38.917Z,40.20
2018-08-11T19:25:16.712Z,41.20
2018-08-11T19:27:53.716Z,40.60
2018-08-11T19:30:30.867Z,40.60
2018-08-11T19:33:06.937Z,41.20
2018-08-11T19:35:43.834Z,41.70
2018-08-11T19:38:21.538Z,42.90
2018-08-11T19:40:58.311Z,42.40
2018-08-11T19:43:36.685Z,41.70
2018-08-11T19:46:14.231Z,42.30
2018-08-11T19:48:50.404Z,42.50
2018-08-11T19:51:28.713Z,42.20
2018-08-11T19:54:06.534Z,42.50
2018-08-11T19:56:43.273Z,42.50
2018-08-11T19:59:19.605Z,43.10
2018-08-11T20:01:57.244Z,43.30
2018-08-11T20:04:35.488Z,43.60
2018-08-11T20:07:13.437Z,43.50
2018-08-11T20:09:51.450Z,43.50
2018-08-11T20:12:27.925Z,44.30
2018-08-11T20:15:07.152Z,44.30
2018-08-11T20:17:43.296Z,44.00
2018-08-11T20:20:21.328Z,43.80
2018-08-11T20:22:58.129Z,44.60
2018-08-11T20:25:34.673Z,44.10
2018-08-11T20:28:11.920Z,43.90
2018-08-11T20:30:49.481Z,45.00
2018-08-11T20:33:26.239Z,44.50
2018-08-11T20:36:03.666Z,43.80
2018-08-11T20:38:42.349Z,44.60
2018-08-11T20:41:18.961Z,44.90
2018-08-11T20:43:55.452Z,44.90
2018-08-11T20:46:31.480Z,45.70
2018-08-11T20:49:08.338Z,45.30
2018-08-11T20:51:45.521Z,45.70
2018-08-11T20:54:22.087Z,46.00
2018-08-11T20:56:58.934Z,45.80
2018-08-11T20:59:35.151Z,46.70
2018-08-11T21:02:13.237Z,46.50
2018-08-11T21:04:51.877Z,46.10
2018-08-11T21:07:28.631Z,45.70
2018-08-11T21:10:07.597Z,46.70
2018-08-11T21:12:45.104Z,47.00
2018-08-11T21:15:23.114Z,46.70
2018-08-11T21:17:59.590Z,47.50
2018-08-11T21:20:37.233Z,46.80
2018-08-11T21:23:13.587Z,46.10
2018-08-11T21:25:50.314Z,46.80
2018-08-11T21:28:29.054Z,46.80
2018-08-11T21:31:04.560Z,46.00
2018-08-11T21:33:41.831Z,46.50
2018-08-11T21:36:18.513Z,46.80
2018-08-11T21:38:55.567Z,46.90
2018-08-11T21:41:31.998Z,46.90
2018-08-11T21:44:08.633Z,48.40
2018-08-11T21:46:44.611Z,49.50
2018-08-11T21:49:22.381Z,48.80
2018-08-11T21:51:59.953Z,49.70
2018-08-11T21:54:37.396Z,50.40
2018-08-11T21:57:13.808Z,48.50
2018-08-11T21:59:49.973Z,48.80
2018-08-11T22:02:26.463Z,48.50
2018-08-11T22:05:03.908Z,49.20
2018-08-11T22:07:40.825Z,49.20
2018-08-11T22:10:18.032Z,50.30
2018-08-11T22:12:55.589Z,50.90
2018-08-11T22:15:33.200Z,49.50
2018-08-11T22:18:10.234Z,50.60
2018-08-11T22:20:46.499Z,50.80
2018-08-11T22:23:24.055Z,51.00
2018-08-11T22:26:01.040Z,51.40
2018-08-11T22:28:38.234Z,51.70
2018-08-11T22:31:16.190Z,52.00
2018-08-11T22:33:52.851Z,51.50
2018-08-11T22:36:31.327Z,52.00
2018-08-11T22:39:09.955Z,52.30
2018-08-11T22:41:45.942Z,53.90
2018-08-11T22:44:23.466Z,52.60
2018-08-11T22:46:59.768Z,53.50
2018-08-11T22:49:37.510Z,54.80
2018-08-11T22:52:16.176Z,53.90
2018-08-11T22:54:53.223Z,53.70
2018-08-11T22:57:31.169Z,54.00
2018-08-11T23:00:21.052Z,53.60
2018-08-11T23:02:58.869Z,54.80
2018-08-11T23:05:36.947Z,53.40
2018-08-11T23:08:13.881Z,53.30
2018-08-11T23:10:52.164Z,54.00
2018-08-11T23:13:28.850Z,54.00
2018-08-11T23:16:05.186Z,55.10
2018-08-11T23:18:41.700Z,55.20
2018-08-11T23:21:19.204Z,55.60
2018-08-11T23:23:56.013Z,54.60
2018-08-11T23:26:33.433Z,55.20
2018-08-11T23:29:09.925Z,54.80
2018-08-11T23:31:49.271Z,55.70
2018-08-11T23:34:26.595Z,55.00
2018-08-11T23:37:03.509Z,55.40
2018-08-11T23:39:40.080Z,55.20
2018-08-11T23:42:17.707Z,56.20
2018-08-11T23:44:53.573Z,56.20
2018-08-11T23:47:29.756Z,55.00
2018-08-11T23:50:07.079Z,54.20
2018-08-11T23:52:45.390Z,55.00
2018-08-11T23:55:22.685Z,55.30
2018-08-11T23:57:59.811Z,54.60
